Orlando, Florida
Traffic Map
Current Weather Conditions
Orlando, Florida
Clear
Clear
75°
Feels Like: 75°
Wind Chill: 75° Ceiling: Unl
Heat Index: 75° Visibility: 10mi
Dew Point: 75° Wind: 5mph
Humidity: 100% Direction: 240° (WSW)
Pressure: 30.03in Gusts: 0mph
Raw Report DataKORL 011053Z AUTO 24004KT 10SM CLR 24/24 A3003 RMK AO2 SLP171 T02390239 $
Traffic Incident Summary
Active as of:
Severity:
Category:
InformationThere was an issue retrieving the traffic information for this location. Please try a different location or try again shortly.
Advertisements
Track Severe Weather on mobile